createdAt,value
2019-04-22T00:00:34.541Z,24.63
2019-04-22T00:03:05.444Z,34.77
2019-04-22T00:05:55.187Z,42.10
2019-04-22T00:08:30.945Z,38.43
2019-04-22T00:11:07.945Z,32.97
2019-04-22T00:13:43.903Z,35.87
2019-04-22T00:16:10.501Z,42.67
2019-04-22T00:18:54.903Z,58.10
2019-04-22T00:21:15.204Z,64.30
2019-04-22T00:23:45.236Z,60.90
2019-04-22T00:26:16.393Z,49.67
2019-04-22T00:28:49.984Z,39.37
2019-04-22T00:31:53.112Z,36.50
2019-04-22T00:34:22.891Z,34.90
2019-04-22T00:36:54.855Z,27.93
2019-04-22T00:39:35.837Z,26.73
2019-04-22T00:42:09.254Z,26.97
2019-04-22T00:44:40.291Z,37.20
2019-04-22T00:47:18.245Z,53.50
2019-04-22T00:52:16.704Z,40.97
2019-04-22T00:54:54.443Z,41.50
2019-04-22T00:57:26.795Z,46.10
2019-04-22T00:59:55.064Z,48.43
2019-04-22T01:02:27.984Z,42.60
2019-04-22T01:04:56.016Z,38.93
2019-04-22T01:07:27.060Z,42.43
2019-04-22T01:12:33.763Z,26.37
2019-04-22T01:15:07.352Z,31.40
2019-04-22T01:17:41.767Z,27.73
2019-04-22T01:20:25.836Z,26.67
2019-04-22T01:22:41.856Z,18.97
2019-04-22T01:25:08.822Z,22.07
2019-04-22T01:27:41.576Z,19.13
2019-04-22T01:30:10.965Z,17.80
2019-04-22T01:32:36.098Z,18.57
2019-04-22T01:35:13.354Z,16.77
2019-04-22T01:37:49.543Z,17.63
2019-04-22T01:40:32.886Z,21.10
2019-04-22T01:43:07.035Z,21.93
2019-04-22T01:45:39.532Z,18.93
2019-04-22T01:48:12.806Z,18.80
2019-04-22T01:50:37.065Z,19.33
2019-04-22T01:53:11.674Z,21.07
2019-04-22T01:55:46.948Z,17.63
2019-04-22T01:58:11.220Z,18.43
2019-04-22T02:00:53.654Z,19.30
2019-04-22T02:03:26.452Z,19.87
2019-04-22T02:05:50.473Z,20.57
2019-04-22T02:08:31.291Z,21.43
2019-04-22T02:11:00.764Z,18.53
2019-04-22T02:13:30.806Z,19.60
2019-04-22T02:16:06.694Z,18.80
2019-04-22T02:18:39.424Z,19.80
2019-04-22T02:21:07.311Z,16.97
2019-04-22T02:23:51.381Z,18.80
2019-04-22T02:28:56.458Z,18.47
2019-04-22T02:31:33.035Z,15.00
2019-04-22T02:46:43.048Z,18.53
2019-04-22T02:49:11.707Z,19.10
2019-04-22T02:54:29.947Z,20.53
2019-04-22T03:01:44.891Z,22.80
2019-04-22T03:04:28.342Z,23.73
2019-04-22T03:12:02.761Z,25.73
2019-04-22T03:14:22.381Z,26.87
2019-04-22T03:16:50.461Z,26.70
2019-04-22T03:22:00.739Z,25.67
2019-04-22T03:42:59.680Z,22.47
2019-04-22T03:53:06.240Z,18.97
2019-04-22T03:58:11.116Z,42.10
2019-04-22T04:00:47.684Z,26.37
2019-04-22T04:03:09.793Z,17.70
2019-04-22T04:05:45.461Z,24.63
2019-04-22T04:08:18.408Z,16.37
2019-04-22T04:15:55.742Z,19.43
2019-04-22T04:18:44.527Z,16.03
2019-04-22T04:23:31.007Z,15.20
2019-04-22T04:25:52.561Z,16.30
2019-04-22T04:33:50.976Z,14.93
2019-04-22T04:36:17.113Z,16.03
2019-04-22T04:38:48.134Z,14.90
2019-04-22T04:43:50.425Z,14.90
2019-04-22T04:48:55.461Z,14.90
2019-04-22T04:53:58.132Z,13.83
2019-04-22T04:56:34.384Z,14.23
2019-04-22T04:59:05.655Z,11.40
2019-04-22T05:01:30.758Z,14.90
2019-04-22T05:04:04.632Z,12.77
2019-04-22T05:11:50.222Z,11.33
2019-04-22T05:16:42.518Z,10.67
2019-04-22T05:19:15.913Z,13.33
2019-04-22T05:21:48.641Z,13.17
2019-04-22T05:26:52.792Z,13.13
2019-04-22T05:29:23.468Z,12.83
2019-04-22T05:31:56.986Z,12.83
2019-04-22T05:34:21.590Z,11.20
2019-04-22T05:36:53.889Z,12.23
2019-04-22T05:39:42.368Z,10.50
2019-04-22T05:42:03.886Z,11.97
2019-04-22T05:47:01.032Z,11.27
2019-04-22T05:49:35.108Z,10.40
2019-04-22T05:52:11.095Z,10.27
2019-04-22T05:54:38.613Z,11.70
2019-04-22T05:57:14.376Z,9.53
2019-04-22T05:59:48.747Z,11.53
2019-04-22T06:02:25.248Z,12.07
2019-04-22T06:04:54.539Z,12.00
2019-04-22T06:07:22.936Z,9.63
2019-04-22T06:09:59.624Z,9.10
2019-04-22T06:12:23.822Z,11.60
2019-04-22T06:15:01.171Z,12.00
2019-04-22T06:17:43.123Z,11.77
2019-04-22T06:20:04.238Z,10.07
2019-04-22T06:22:43.149Z,9.47
2019-04-22T06:25:23.054Z,9.10
2019-04-22T06:27:48.332Z,10.67
2019-04-22T06:30:15.354Z,11.50
2019-04-22T06:32:51.797Z,9.80
2019-04-22T06:35:37.939Z,12.93
2019-04-22T06:38:09.723Z,10.53
2019-04-22T06:40:29.553Z,8.57
2019-04-22T06:43:05.660Z,9.90
2019-04-22T06:45:30.904Z,10.53
2019-04-22T06:50:36.790Z,10.70
2019-04-22T06:53:05.815Z,7.97
2019-04-22T06:58:10.369Z,11.17
2019-04-22T07:00:55.774Z,10.80
2019-04-22T07:05:46.351Z,11.70
2019-04-22T07:08:45.734Z,8.30
2019-04-22T07:13:27.361Z,8.73
2019-04-22T07:18:31.464Z,9.37
2019-04-22T07:23:45.770Z,9.60
2019-04-22T07:26:07.618Z,8.10
2019-04-22T07:28:39.368Z,6.83
2019-04-22T07:31:11.634Z,6.73
2019-04-22T07:33:42.487Z,8.83
2019-04-22T07:36:41.810Z,8.47
2019-04-22T07:38:43.450Z,8.87
2019-04-22T07:41:20.035Z,9.20
2019-04-22T07:44:10.337Z,8.90
2019-04-22T07:46:30.212Z,8.90
2019-04-22T07:48:57.740Z,7.40
2019-04-22T07:51:32.925Z,6.63
2019-04-22T07:54:01.721Z,7.43
2019-04-22T07:56:40.969Z,8.53
2019-04-22T07:59:09.518Z,8.93
2019-04-22T08:01:38.099Z,7.40
2019-04-22T08:04:16.385Z,7.97
2019-04-22T08:06:46.300Z,6.43
2019-04-22T08:09:19.936Z,7.23
2019-04-22T08:11:49.937Z,7.53
2019-04-22T08:14:27.044Z,7.73
2019-04-22T08:17:00.975Z,8.03
2019-04-22T08:21:58.407Z,7.90
2019-04-22T08:24:35.956Z,6.50
2019-04-22T08:27:08.909Z,5.20
2019-04-22T08:29:46.981Z,8.20
2019-04-22T08:32:05.033Z,6.33
2019-04-22T08:34:39.475Z,8.90
2019-04-22T08:40:03.556Z,6.70
2019-04-22T08:42:29.431Z,5.53
2019-04-22T08:45:09.584Z,5.42
2019-04-22T08:47:29.079Z,5.95
2019-04-22T08:52:30.062Z,5.65
2019-04-22T08:55:00.078Z,6.60
2019-04-22T08:57:34.809Z,5.80
2019-04-22T09:00:04.038Z,5.10
2019-04-22T09:05:11.992Z,8.58
2019-04-22T09:07:36.875Z,6.78
2019-04-22T09:10:14.838Z,6.43
2019-04-22T09:12:57.642Z,5.57
2019-04-22T09:15:16.707Z,8.83
2019-04-22T09:17:50.030Z,8.88
2019-04-22T09:20:21.979Z,6.35
2019-04-22T09:22:56.880Z,3.80
2019-04-22T09:25:25.178Z,5.95
2019-04-22T09:27:56.017Z,5.45
2019-04-22T09:30:37.383Z,7.10
2019-04-22T09:33:06.116Z,5.42
2019-04-22T09:35:37.551Z,6.25
2019-04-22T09:38:20.753Z,6.35
2019-04-22T09:40:36.244Z,6.10
2019-04-22T09:43:11.425Z,5.95
2019-04-22T09:45:43.634Z,6.33
2019-04-22T09:48:19.065Z,5.90
2019-04-22T09:50:48.077Z,6.60
2019-04-22T09:53:22.717Z,5.40
2019-04-22T09:55:51.612Z,6.35
2019-04-22T09:58:26.628Z,7.62
2019-04-22T10:01:19.053Z,7.15
2019-04-22T10:03:45.385Z,10.70
2019-04-22T10:06:23.118Z,6.53
2019-04-22T10:09:08.044Z,5.03
2019-04-22T10:11:31.077Z,6.60
2019-04-22T10:13:53.797Z,4.97
2019-04-22T10:19:01.037Z,5.53
2019-04-22T10:24:03.331Z,6.47
2019-04-22T10:29:08.574Z,7.23
2019-04-22T10:33:56.099Z,6.77
2019-04-22T10:36:17.309Z,7.37
2019-04-22T10:38:48.707Z,7.80
2019-04-22T10:41:20.706Z,7.93
2019-04-22T10:43:51.258Z,7.10
2019-04-22T10:46:22.189Z,8.20
2019-04-22T10:48:52.921Z,8.50
2019-04-22T10:51:24.530Z,8.80
2019-04-22T10:53:55.649Z,11.87
2019-04-22T10:56:28.828Z,12.30
2019-04-22T10:59:00.453Z,6.93
2019-04-22T11:01:31.753Z,6.90
2019-04-22T11:04:03.352Z,8.05
2019-04-22T11:06:42.589Z,9.53
2019-04-22T11:09:08.665Z,7.53
2019-04-22T11:11:48.839Z,7.58
2019-04-22T11:14:12.846Z,7.37
2019-04-22T11:16:43.672Z,8.08
2019-04-22T11:19:14.097Z,6.12
2019-04-22T11:21:57.058Z,6.05
2019-04-22T11:24:16.889Z,5.92
2019-04-22T11:26:49.216Z,6.62
2019-04-22T11:29:21.136Z,8.13
2019-04-22T11:31:52.504Z,5.37
2019-04-22T11:34:22.962Z,5.28
2019-04-22T11:36:54.767Z,5.47
2019-04-22T11:39:26.014Z,6.22
2019-04-22T11:41:58.350Z,7.67
2019-04-22T11:44:30.659Z,7.47
2019-04-22T11:47:01.550Z,7.25
2019-04-22T11:49:34.087Z,6.40
2019-04-22T11:52:06.582Z,6.90
2019-04-22T11:54:38.851Z,6.58
2019-04-22T11:57:10.823Z,6.97
2019-04-22T11:59:42.811Z,6.03
2019-04-22T12:02:16.098Z,6.47
2019-04-22T12:04:45.800Z,6.27
2019-04-22T12:07:17.170Z,4.25
2019-04-22T12:09:47.948Z,5.70
2019-04-22T12:12:18.799Z,5.65
2019-04-22T12:14:50.324Z,5.55
2019-04-22T12:17:22.178Z,5.80
2019-04-22T12:19:53.847Z,5.10
2019-04-22T12:22:25.099Z,4.75
2019-04-22T12:24:56.575Z,5.97
2019-04-22T12:27:28.770Z,5.10
2019-04-22T12:30:00.752Z,4.75
2019-04-22T12:32:31.668Z,4.50
2019-04-22T12:35:02.523Z,6.58
2019-04-22T12:37:41.664Z,4.10
2019-04-22T12:40:08.658Z,4.53
2019-04-22T12:42:39.449Z,4.42
2019-04-22T12:45:12.164Z,4.22
2019-04-22T12:47:44.044Z,4.28
2019-04-22T12:50:22.400Z,3.83
2019-04-22T12:52:56.847Z,5.20
2019-04-22T12:55:23.765Z,6.03
2019-04-22T12:57:58.583Z,4.80
2019-04-22T13:00:27.208Z,6.50
2019-04-22T13:02:58.900Z,5.45
2019-04-22T13:05:31.386Z,4.97
2019-04-22T13:08:02.057Z,5.22
2019-04-22T13:10:41.614Z,4.30
2019-04-22T13:13:04.981Z,6.97
2019-04-22T13:15:37.101Z,6.33
2019-04-22T13:18:17.092Z,7.57
2019-04-22T13:20:42.142Z,4.93
2019-04-22T13:23:13.820Z,4.77
2019-04-22T13:25:44.883Z,5.20
2019-04-22T13:28:15.505Z,4.90
2019-04-22T13:30:46.527Z,6.80
2019-04-22T13:33:17.234Z,6.57
2019-04-22T13:35:49.756Z,8.57
2019-04-22T13:38:20.577Z,6.43
2019-04-22T13:41:14.031Z,9.03
2019-04-22T13:43:23.135Z,10.33
2019-04-22T13:45:54.093Z,12.37
2019-04-22T13:48:46.298Z,9.40
2019-04-22T13:56:20.561Z,9.77
2019-04-22T13:58:48.349Z,9.97
2019-04-22T14:01:10.437Z,8.80
2019-04-22T14:04:00.787Z,10.27
2019-04-22T14:06:31.487Z,10.17
2019-04-22T14:09:03.220Z,9.15
2019-04-22T14:11:48.903Z,10.58
2019-04-22T14:14:09.042Z,9.03
2019-04-22T14:16:40.804Z,9.77
2019-04-22T14:19:11.921Z,10.37
2019-04-22T14:21:46.985Z,11.70
2019-04-22T14:24:15.831Z,12.43
2019-04-22T14:26:58.797Z,11.50
2019-04-22T14:29:19.748Z,11.97
2019-04-22T14:32:02.816Z,9.17
2019-04-22T14:34:24.350Z,10.43
2019-04-22T14:36:55.395Z,12.30
2019-04-22T14:39:26.112Z,12.77
2019-04-22T14:42:19.569Z,10.73
2019-04-22T14:47:26.013Z,12.10
2019-04-22T14:49:56.010Z,10.57
2019-04-22T14:52:31.388Z,11.80
2019-04-22T14:54:51.944Z,11.80
2019-04-22T14:57:12.978Z,10.93
2019-04-22T14:59:44.037Z,13.57
2019-04-22T15:02:15.987Z,10.93
2019-04-22T15:04:48.004Z,13.87
2019-04-22T15:07:19.200Z,12.80
2019-04-22T15:09:50.371Z,15.60
2019-04-22T15:12:31.230Z,15.90
2019-04-22T15:14:55.489Z,13.07
2019-04-22T15:17:44.977Z,11.00
2019-04-22T15:20:44.059Z,10.47
2019-04-22T15:23:14.803Z,10.97
2019-04-22T15:25:46.453Z,11.97
2019-04-22T15:28:17.666Z,13.07
2019-04-22T15:30:51.217Z,13.23
2019-04-22T15:33:23.399Z,11.73
2019-04-22T15:35:55.557Z,13.50
2019-04-22T15:38:26.349Z,12.57
2019-04-22T15:40:58.575Z,10.23
2019-04-22T15:43:31.678Z,12.77
2019-04-22T15:46:03.717Z,12.87
2019-04-22T15:48:34.223Z,13.13
2019-04-22T15:51:06.823Z,11.80
2019-04-22T15:53:37.967Z,10.13
2019-04-22T15:56:08.719Z,9.93
2019-04-22T15:58:39.700Z,11.93
2019-04-22T16:01:17.717Z,13.00
2019-04-22T16:03:42.793Z,13.23
2019-04-22T16:06:13.866Z,12.27
2019-04-22T16:08:45.827Z,16.63
2019-04-22T16:11:17.958Z,14.53
2019-04-22T16:13:50.399Z,15.17
2019-04-22T16:16:22.919Z,17.13
2019-04-22T16:18:54.184Z,15.83
2019-04-22T16:21:34.058Z,14.80
2019-04-22T16:24:13.968Z,15.60
2019-04-22T16:27:18.730Z,12.20
2019-04-22T16:29:49.745Z,18.37
2019-04-22T16:32:21.217Z,13.07
2019-04-22T16:34:52.537Z,14.47
2019-04-22T16:37:23.208Z,16.03
2019-04-22T16:39:56.536Z,15.67
2019-04-22T16:42:35.933Z,15.07
2019-04-22T16:44:59.689Z,12.60
2019-04-22T16:47:31.377Z,15.83
2019-04-22T16:50:03.665Z,15.50
2019-04-22T16:52:34.333Z,16.50
2019-04-22T16:55:06.045Z,15.53
2019-04-22T16:57:37.821Z,14.93
2019-04-22T17:00:11.141Z,12.47
2019-04-22T17:03:00.732Z,15.20
2019-04-22T17:05:51.655Z,16.20
2019-04-22T17:08:24.551Z,16.70
2019-04-22T17:10:55.771Z,13.53
2019-04-22T17:13:30.391Z,15.03
2019-04-22T17:16:00.837Z,15.63
2019-04-22T17:18:33.086Z,11.53
2019-04-22T17:21:06.737Z,16.70
2019-04-22T17:23:36.217Z,16.43
2019-04-22T17:26:08.283Z,14.70
2019-04-22T17:28:39.655Z,15.40
2019-04-22T17:31:10.909Z,15.23
2019-04-22T17:33:41.366Z,13.80
2019-04-22T17:36:12.130Z,16.57
2019-04-22T17:38:54.322Z,16.33
2019-04-22T17:41:24.205Z,14.90
2019-04-22T17:44:12.163Z,15.67
2019-04-22T17:46:41.693Z,16.87
2019-04-22T17:49:34.104Z,15.13
2019-04-22T17:52:20.245Z,16.87
2019-04-22T17:54:49.344Z,14.33
2019-04-22T17:57:24.110Z,15.77
2019-04-22T18:02:22.177Z,16.20
2019-04-22T18:04:45.430Z,14.93
2019-04-22T18:07:42.954Z,15.90
2019-04-22T18:10:24.349Z,15.93
2019-04-22T18:12:38.268Z,12.13
2019-04-22T18:15:19.438Z,13.30
2019-04-22T18:17:41.405Z,13.90
2019-04-22T18:20:04.672Z,16.03
2019-04-22T18:22:37.187Z,13.60
2019-04-22T18:25:08.730Z,13.97
2019-04-22T18:30:14.857Z,14.47
2019-04-22T18:32:53.309Z,11.50
2019-04-22T18:35:20.941Z,11.90
2019-04-22T18:38:15.458Z,13.23
2019-04-22T18:40:31.080Z,13.73
2019-04-22T18:43:07.999Z,12.53
2019-04-22T18:45:58.628Z,13.57
2019-04-22T18:47:59.887Z,10.97
2019-04-22T18:50:53.374Z,11.37
2019-04-22T18:53:41.533Z,12.60
2019-04-22T18:56:16.345Z,13.27
2019-04-22T18:58:38.248Z,10.70
2019-04-22T19:00:57.722Z,11.33
2019-04-22T19:03:32.182Z,11.73
2019-04-22T19:06:31.868Z,12.07
2019-04-22T19:08:55.431Z,11.47
2019-04-22T19:11:25.720Z,9.80
2019-04-22T19:16:36.964Z,11.13
2019-04-22T19:19:25.641Z,11.23
2019-04-22T19:21:38.063Z,9.87
2019-04-22T19:24:09.020Z,9.43
2019-04-22T19:26:49.988Z,9.53
2019-04-22T19:29:17.150Z,12.40
2019-04-22T19:31:45.882Z,11.97
2019-04-22T19:34:16.587Z,10.37
2019-04-22T19:36:51.585Z,11.13
2019-04-22T19:39:20.680Z,12.23
2019-04-22T19:42:00.902Z,10.37
2019-04-22T19:44:36.437Z,9.30
2019-04-22T19:47:21.238Z,10.33
2019-04-22T19:49:36.423Z,10.53
2019-04-22T19:52:12.830Z,10.53
2019-04-22T19:54:40.703Z,12.33
2019-04-22T19:57:03.652Z,11.27
2019-04-22T19:59:45.248Z,11.93
2019-04-22T20:02:42.331Z,8.33
2019-04-22T20:05:34.011Z,11.00
2019-04-22T20:07:52.417Z,10.20
2019-04-22T20:10:34.883Z,12.50
2019-04-22T20:12:57.172Z,11.60
2019-04-22T20:15:30.242Z,12.40
2019-04-22T20:18:22.002Z,12.43
2019-04-22T20:20:40.624Z,13.20
2019-04-22T20:23:08.320Z,11.67
2019-04-22T20:25:40.812Z,13.07
2019-04-22T20:28:21.068Z,13.53
2019-04-22T20:30:50.589Z,13.80
2019-04-22T20:33:26.309Z,12.03
2019-04-22T20:35:53.570Z,13.17
2019-04-22T20:38:25.873Z,13.93
2019-04-22T20:40:55.070Z,12.93
2019-04-22T20:43:36.838Z,10.20
2019-04-22T20:46:05.263Z,13.53
2019-04-22T20:48:37.542Z,11.00
2019-04-22T20:51:04.143Z,11.50
2019-04-22T20:53:43.917Z,17.63
2019-04-22T20:56:10.782Z,11.73
2019-04-22T20:58:51.055Z,12.07
2019-04-22T21:01:06.470Z,12.90
2019-04-22T21:03:33.250Z,12.30
2019-04-22T21:06:16.428Z,11.37
2019-04-22T21:08:47.559Z,11.27
2019-04-22T21:11:19.651Z,12.37
2019-04-22T21:13:52.885Z,9.97
2019-04-22T21:16:27.047Z,12.00
2019-04-22T21:18:57.774Z,11.00
2019-04-22T21:21:33.331Z,11.40
2019-04-22T21:23:57.237Z,10.67
2019-04-22T21:26:33.640Z,9.47
2019-04-22T21:29:09.977Z,10.67
2019-04-22T21:31:41.659Z,11.77
2019-04-22T21:34:10.185Z,11.70
2019-04-22T21:36:50.682Z,11.37
2019-04-22T21:39:15.708Z,10.23
2019-04-22T21:41:46.073Z,12.27
2019-04-22T21:44:19.205Z,11.10
2019-04-22T21:47:00.583Z,9.83
2019-04-22T21:49:31.078Z,9.67
2019-04-22T21:51:58.434Z,9.37
2019-04-22T21:54:34.257Z,10.60
2019-04-22T21:57:24.666Z,10.70
2019-04-22T21:59:53.289Z,12.43
2019-04-22T22:02:28.149Z,10.03
2019-04-22T22:04:52.763Z,10.27
2019-04-22T22:07:17.645Z,10.17
2019-04-22T22:09:59.526Z,11.67
2019-04-22T22:12:36.158Z,11.30
2019-04-22T22:15:07.887Z,10.17
2019-04-22T22:17:40.068Z,11.23
2019-04-22T22:20:06.119Z,11.57
2019-04-22T22:25:17.815Z,12.53
2019-04-22T22:27:44.771Z,12.50
2019-04-22T22:30:40.025Z,10.67
2019-04-22T22:32:54.782Z,10.57
2019-04-22T22:35:27.862Z,11.00
2019-04-22T22:38:01.454Z,12.27
2019-04-22T22:40:15.452Z,11.53
2019-04-22T22:42:45.905Z,11.50
2019-04-22T22:45:26.792Z,9.07
2019-04-22T22:48:16.934Z,9.50
2019-04-22T22:50:38.170Z,9.13
2019-04-22T22:53:23.963Z,9.97
2019-04-22T22:55:45.890Z,9.30
2019-04-22T22:58:16.183Z,8.63
2019-04-22T23:00:44.144Z,10.60
2019-04-22T23:03:40.248Z,8.47
2019-04-22T23:05:59.164Z,9.13
2019-04-22T23:08:34.096Z,8.20
2019-04-22T23:11:15.438Z,7.30
2019-04-22T23:13:35.989Z,9.13
2019-04-22T23:15:58.174Z,7.40
2019-04-22T23:18:16.145Z,8.53
2019-04-22T23:20:48.326Z,10.87
2019-04-22T23:23:39.469Z,10.43
2019-04-22T23:26:11.869Z,9.73
2019-04-22T23:28:51.053Z,9.17
2019-04-22T23:31:36.855Z,10.97
2019-04-22T23:34:15.880Z,6.93
2019-04-22T23:36:54.236Z,9.23
2019-04-22T23:39:30.924Z,7.50
2019-04-22T23:42:06.415Z,8.23
2019-04-22T23:44:32.195Z,9.57
2019-04-22T23:47:07.553Z,10.20
2019-04-22T23:49:33.937Z,10.10
2019-04-22T23:52:16.182Z,9.17
2019-04-22T23:54:57.096Z,8.13
2019-04-22T23:57:30.785Z,7.77
